createdAt,value
2022-12-17T00:01:27.039Z,101297.88
2022-12-17T00:04:31.075Z,101289.84
2022-12-17T00:07:35.307Z,101293.91
2022-12-17T00:10:47.046Z,101295.25
2022-12-17T00:13:51.475Z,101297.63
2022-12-17T00:16:55.731Z,101292.16
2022-12-17T00:20:00.932Z,101280.69
2022-12-17T00:23:04.917Z,101281.91
2022-12-17T00:26:13.550Z,101283.28
2022-12-17T00:29:17.349Z,101275.22
2022-12-17T00:32:21.985Z,101284.50
2022-12-17T00:35:27.695Z,101281.84
2022-12-17T00:38:35.893Z,101280.56
2022-12-17T00:41:40.007Z,101262.00
2022-12-17T00:44:44.202Z,101252.13
2022-12-17T00:47:48.238Z,101255.38
2022-12-17T00:50:52.612Z,101245.81
2022-12-17T00:53:56.698Z,101244.22
2022-12-17T00:57:02.399Z,101249.19
2022-12-17T01:00:06.510Z,101246.69
2022-12-17T01:03:10.884Z,101252.72
2022-12-17T01:06:14.820Z,101252.78
2022-12-17T01:09:18.960Z,101261.50
2022-12-17T01:12:25.128Z,101254.88
2022-12-17T01:15:31.598Z,101260.13
2022-12-17T01:18:37.764Z,101275.63
2022-12-17T01:21:41.640Z,101278.09
2022-12-17T01:24:45.981Z,101276.25
2022-12-17T01:27:49.981Z,101278.03
2022-12-17T01:30:57.738Z,101275.38
2022-12-17T01:34:01.866Z,101271.78
2022-12-17T01:37:05.721Z,101273.75
2022-12-17T01:40:09.802Z,101274.97
2022-12-17T01:43:14.002Z,101281.16
2022-12-17T01:46:20.185Z,101279.59
2022-12-17T01:49:25.806Z,101281.81
2022-12-17T01:52:33.173Z,101276.16
2022-12-17T01:55:37.542Z,101277.16
2022-12-17T01:58:41.672Z,101272.88
2022-12-17T02:01:46.435Z,101275.28
2022-12-17T02:04:51.521Z,101270.94
2022-12-17T02:08:07.999Z,101279.28
2022-12-17T02:11:18.332Z,101274.75
2022-12-17T02:15:02.526Z,101280.75
2022-12-17T02:18:12.716Z,101284.94
2022-12-17T02:21:18.273Z,101285.69
2022-12-17T02:24:43.547Z,101289.03
2022-12-17T02:27:49.710Z,101286.13
2022-12-17T02:30:55.773Z,101290.41
2022-12-17T02:34:00.843Z,101288.69
2022-12-17T02:37:10.171Z,101286.25
2022-12-17T02:40:15.765Z,101287.03
2022-12-17T02:43:22.639Z,101290.34
2022-12-17T02:46:27.822Z,101289.31
2022-12-17T02:49:31.762Z,101295.28
2022-12-17T02:52:39.454Z,101288.94
2022-12-17T02:55:43.647Z,101285.22
2022-12-17T02:58:47.861Z,101289.56
2022-12-17T03:01:52.159Z,101289.28
2022-12-17T03:04:56.133Z,101289.06
2022-12-17T03:08:00.512Z,101283.72
2022-12-17T03:11:04.550Z,101290.38
2022-12-17T03:14:08.695Z,101283.16
2022-12-17T03:17:12.706Z,101289.16
2022-12-17T03:20:16.765Z,101283.00
2022-12-17T03:23:26.541Z,101282.78
2022-12-17T03:26:30.648Z,101280.75
2022-12-17T03:29:34.671Z,101277.19
2022-12-17T03:32:38.787Z,101273.66
2022-12-17T03:35:42.690Z,101272.66
2022-12-17T03:38:46.770Z,101265.88
2022-12-17T03:41:50.966Z,101274.41
2022-12-17T03:44:55.043Z,101277.47
2022-12-17T03:48:15.838Z,101278.81
2022-12-17T03:51:20.668Z,101273.06
2022-12-17T03:54:24.884Z,101266.41
2022-12-17T03:57:28.929Z,101265.59
2022-12-17T04:00:33.056Z,101269.94
2022-12-17T04:03:37.382Z,101273.44
2022-12-17T04:06:41.593Z,101272.50
2022-12-17T04:09:45.535Z,101274.00
2022-12-17T04:12:49.475Z,101273.19
2022-12-17T04:15:53.648Z,101268.59
2022-12-17T04:18:57.743Z,101267.72
2022-12-17T04:22:01.896Z,101272.81
2022-12-17T04:25:06.028Z,101273.66
2022-12-17T04:28:10.047Z,101268.47
2022-12-17T04:31:14.164Z,101265.97
2022-12-17T04:34:17.992Z,101272.94
2022-12-17T04:37:22.135Z,101272.16
2022-12-17T04:40:28.117Z,101280.03
2022-12-17T04:43:32.054Z,101276.38
2022-12-17T04:46:36.290Z,101273.06
2022-12-17T04:49:40.327Z,101272.09
2022-12-17T04:52:44.360Z,101266.56
2022-12-17T04:55:56.027Z,101260.31
2022-12-17T04:59:00.469Z,101260.41
2022-12-17T05:02:04.645Z,101257.69
2022-12-17T05:05:08.613Z,101258.38
2022-12-17T05:08:16.899Z,101255.59
2022-12-17T05:11:23.032Z,101256.44
2022-12-17T05:14:27.243Z,101261.69
2022-12-17T05:17:31.197Z,101264.22
2022-12-17T05:20:35.373Z,101264.16
2022-12-17T05:23:39.410Z,101257.97
2022-12-17T05:26:46.750Z,101265.16
2022-12-17T05:29:50.930Z,101268.94
2022-12-17T05:32:55.230Z,101265.41
2022-12-17T05:35:59.487Z,101267.66
2022-12-17T05:39:03.627Z,101265.88
2022-12-17T05:42:07.661Z,101270.34
2022-12-17T05:45:28.721Z,101270.69
2022-12-17T05:48:32.633Z,101266.50
2022-12-17T05:51:38.857Z,101269.13
2022-12-17T05:54:43.302Z,101268.22
2022-12-17T05:57:51.730Z,101269.19
2022-12-17T06:00:58.776Z,101267.50
2022-12-17T06:04:02.966Z,101269.59
2022-12-17T06:07:06.995Z,101268.53
2022-12-17T06:10:11.432Z,101260.88
2022-12-17T06:13:16.815Z,101268.53
2022-12-17T06:16:21.148Z,101266.56
2022-12-17T06:19:25.282Z,101268.34
2022-12-17T06:22:29.450Z,101276.19
2022-12-17T06:25:33.772Z,101279.06
2022-12-17T06:28:37.994Z,101277.59
2022-12-17T06:31:42.324Z,101281.44
2022-12-17T06:34:46.555Z,101275.47
2022-12-17T06:37:50.920Z,101275.28
2022-12-17T06:40:55.011Z,101271.63
2022-12-17T06:43:59.113Z,101273.94
2022-12-17T06:47:03.322Z,101273.94
2022-12-17T06:50:07.395Z,101270.38
2022-12-17T06:53:23.518Z,101271.84
2022-12-17T06:56:27.564Z,101268.47
2022-12-17T06:59:31.735Z,101269.25
2022-12-17T07:02:35.945Z,101280.78
2022-12-17T07:05:39.995Z,101277.66
2022-12-17T07:08:43.992Z,101278.59
2022-12-17T07:11:48.064Z,101278.78
2022-12-17T07:14:52.153Z,101281.34
2022-12-17T07:17:56.167Z,101282.94
2022-12-17T07:21:00.854Z,101275.34
2022-12-17T07:24:04.782Z,101282.75
2022-12-17T07:27:10.074Z,101287.03
2022-12-17T07:30:14.117Z,101288.63
2022-12-17T07:33:24.508Z,101294.44
2022-12-17T07:36:28.739Z,101290.97
2022-12-17T07:39:32.827Z,101295.13
2022-12-17T07:42:36.826Z,101290.84
2022-12-17T07:45:40.932Z,101302.16
2022-12-17T07:48:44.979Z,101299.53
2022-12-17T07:51:49.265Z,101303.56
2022-12-17T07:54:53.336Z,101300.25
2022-12-17T07:57:57.588Z,101302.63
2022-12-17T08:01:01.863Z,101296.59
2022-12-17T08:04:05.851Z,101310.69
2022-12-17T08:07:14.026Z,101312.31
2022-12-17T08:10:18.480Z,101323.06
2022-12-17T08:13:24.113Z,101313.09
2022-12-17T08:16:28.217Z,101326.25
2022-12-17T08:19:32.818Z,101319.06
2022-12-17T08:22:36.834Z,101318.22
2022-12-17T08:25:41.133Z,101328.88
2022-12-17T08:28:52.377Z,101330.72
2022-12-17T08:31:56.516Z,101328.38
2022-12-17T08:35:00.615Z,101331.31
2022-12-17T08:38:04.588Z,101325.50
2022-12-17T08:41:08.756Z,101330.88
2022-12-17T08:44:12.692Z,101332.34
2022-12-17T08:47:16.738Z,101339.50
2022-12-17T08:50:21.275Z,101337.69
2022-12-17T08:53:25.355Z,101336.63
2022-12-17T08:56:29.406Z,101343.25
2022-12-17T08:59:33.649Z,101351.50
2022-12-17T09:02:37.774Z,101353.75
2022-12-17T09:05:41.725Z,101361.13
2022-12-17T09:08:45.684Z,101367.47
2022-12-17T09:11:49.669Z,101364.44
2022-12-17T09:14:53.866Z,101363.97
2022-12-17T09:17:58.410Z,101362.69
2022-12-17T09:21:16.288Z,101364.03
2022-12-17T09:24:20.235Z,101360.91
2022-12-17T09:27:24.513Z,101371.88
2022-12-17T09:30:29.180Z,101381.00
2022-12-17T09:33:35.037Z,101386.03
2022-12-17T09:36:39.500Z,101397.19
2022-12-17T09:39:43.641Z,101399.84
2022-12-17T09:43:01.049Z,101402.47
2022-12-17T09:46:13.045Z,101407.38
2022-12-17T09:49:23.848Z,101408.41
2022-12-17T09:52:47.378Z,101414.13
2022-12-17T09:55:58.849Z,101409.78
2022-12-17T09:59:03.040Z,101417.66
2022-12-17T10:02:07.439Z,101412.75
2022-12-17T10:05:11.438Z,101420.28
2022-12-17T10:08:16.677Z,101422.44
2022-12-17T10:11:39.501Z,101418.19
2022-12-17T10:14:45.002Z,101417.38
2022-12-17T10:17:49.085Z,101415.91
2022-12-17T10:21:07.236Z,101422.91
2022-12-17T10:24:23.436Z,101428.75
2022-12-17T10:27:36.381Z,101424.28
2022-12-17T10:30:40.617Z,101433.50
2022-12-17T10:34:04.403Z,101426.59
2022-12-17T10:37:11.252Z,101429.66
2022-12-17T10:40:20.945Z,101441.38
2022-12-17T10:43:44.326Z,101442.19
2022-12-17T10:46:53.122Z,101435.34
2022-12-17T10:49:57.993Z,101439.63
2022-12-17T10:53:04.504Z,101442.09
2022-12-17T10:56:15.020Z,101441.88
2022-12-17T10:59:19.280Z,101436.75
2022-12-17T11:02:54.677Z,101429.19
2022-12-17T11:05:59.980Z,101425.09
2022-12-17T11:09:04.339Z,101429.00
2022-12-17T11:12:09.432Z,101430.22
2022-12-17T11:15:18.109Z,101424.44
2022-12-17T11:18:24.947Z,101422.91
2022-12-17T11:21:43.675Z,101421.47
2022-12-17T11:25:02.441Z,101425.94
2022-12-17T11:28:13.989Z,101418.31
2022-12-17T11:31:29.329Z,101415.97
2022-12-17T11:35:20.954Z,101415.53
2022-12-17T11:38:48.245Z,101417.97
2022-12-17T11:41:52.263Z,101417.34
2022-12-17T11:44:59.579Z,101419.03
2022-12-17T11:48:19.436Z,101413.19
2022-12-17T11:51:36.690Z,101419.50
2022-12-17T11:55:08.883Z,101416.44
2022-12-17T11:58:25.095Z,101418.38
2022-12-17T12:01:56.044Z,101419.34
2022-12-17T12:05:22.954Z,101408.81
2022-12-17T12:08:35.909Z,101411.16
2022-12-17T12:12:13.063Z,101409.19
2022-12-17T12:15:26.405Z,101399.41
2022-12-17T12:18:33.988Z,101393.81
2022-12-17T12:21:56.729Z,101386.44
2022-12-17T12:25:17.871Z,101377.06
2022-12-17T12:28:22.217Z,101371.03
2022-12-17T12:31:52.744Z,101370.06
2022-12-17T12:34:57.361Z,101363.41
2022-12-17T12:38:01.794Z,101358.25
2022-12-17T12:41:17.592Z,101359.25
2022-12-17T12:44:48.346Z,101354.25
2022-12-17T12:48:12.601Z,101350.25
2022-12-17T12:51:50.263Z,101353.13
2022-12-17T12:55:03.755Z,101348.34
2022-12-17T12:58:22.615Z,101343.50
2022-12-17T13:01:27.559Z,101338.63
2022-12-17T13:04:40.576Z,101327.75
2022-12-17T13:07:29.545Z,101325.50
2022-12-17T13:10:32.802Z,101333.47
2022-12-17T13:13:18.833Z,101338.94
2022-12-17T13:16:39.396Z,101340.09
2022-12-17T13:19:31.405Z,101341.84
2022-12-17T13:22:23.644Z,101343.56
2022-12-17T13:25:30.248Z,101347.22
2022-12-17T13:28:30.985Z,101349.03
2022-12-17T13:31:21.905Z,101336.06
2022-12-17T13:34:17.411Z,101335.13
2022-12-17T13:37:18.458Z,101340.28
2022-12-17T13:40:25.599Z,101333.19
2022-12-17T13:43:18.737Z,101329.75
2022-12-17T13:46:04.673Z,101330.56
2022-12-17T13:49:01.637Z,101325.31
2022-12-17T13:51:47.178Z,101322.09
2022-12-17T13:54:32.757Z,101322.19
2022-12-17T13:57:24.278Z,101311.06
2022-12-17T14:00:28.717Z,101309.38
2022-12-17T14:03:37.044Z,101306.78
2022-12-17T14:06:33.817Z,101318.13
2022-12-17T14:09:22.774Z,101313.72
2022-12-17T14:12:34.836Z,101316.34
2022-12-17T14:15:28.631Z,101314.59
2022-12-17T14:18:20.763Z,101315.41
2022-12-17T14:21:06.643Z,101313.63
2022-12-17T14:23:53.620Z,101309.28
2022-12-17T14:26:53.056Z,101307.59
2022-12-17T14:29:49.519Z,101304.06
2022-12-17T14:32:36.415Z,101309.13
2022-12-17T14:35:27.802Z,101314.31
2022-12-17T14:38:36.875Z,101305.63
2022-12-17T14:41:42.694Z,101302.81
2022-12-17T14:44:30.877Z,101305.25
2022-12-17T14:47:24.314Z,101305.88
2022-12-17T14:50:12.807Z,101304.13
2022-12-17T14:53:01.848Z,101311.84
2022-12-17T14:55:56.167Z,101316.09
2022-12-17T14:58:45.630Z,101316.66
2022-12-17T15:01:31.286Z,101316.19
2022-12-17T15:04:18.432Z,101307.78
2022-12-17T15:07:06.088Z,101308.09
2022-12-17T15:09:52.976Z,101307.38
2022-12-17T15:12:40.721Z,101311.19
2022-12-17T15:15:26.447Z,101312.41
2022-12-17T15:18:11.827Z,101313.97
2022-12-17T15:20:57.279Z,101313.06
2022-12-17T15:23:45.433Z,101315.53
2022-12-17T15:26:30.545Z,101320.63
2022-12-17T15:29:15.945Z,101317.69
2022-12-17T15:32:01.222Z,101319.03
2022-12-17T15:34:47.146Z,101329.78
2022-12-17T15:37:32.508Z,101323.19
2022-12-17T15:40:17.885Z,101321.13
2022-12-17T15:43:12.428Z,101316.13
2022-12-17T15:46:01.069Z,101316.56
2022-12-17T15:48:50.113Z,101311.97
2022-12-17T15:51:36.525Z,101319.25
2022-12-17T15:54:21.893Z,101317.03
2022-12-17T15:57:07.580Z,101318.19
2022-12-17T15:59:53.069Z,101314.13
2022-12-17T16:02:38.851Z,101312.78
2022-12-17T16:05:24.517Z,101316.63
2022-12-17T16:08:09.805Z,101319.53
2022-12-17T16:10:56.363Z,101330.19
2022-12-17T16:13:41.886Z,101328.94
2022-12-17T16:16:30.219Z,101327.75
2022-12-17T16:19:15.486Z,101336.16
2022-12-17T16:22:00.768Z,101334.91
2022-12-17T16:24:46.356Z,101349.91
2022-12-17T16:27:32.161Z,101357.13
2022-12-17T16:30:17.855Z,101354.34
2022-12-17T16:33:03.256Z,101358.44
2022-12-17T16:35:52.912Z,101370.13
2022-12-17T16:38:44.716Z,101366.34
2022-12-17T16:41:30.436Z,101360.91
2022-12-17T16:44:16.198Z,101360.44
2022-12-17T16:47:01.639Z,101355.66
2022-12-17T16:49:50.857Z,101345.03
2022-12-17T16:52:36.421Z,101349.44
2022-12-17T16:55:21.758Z,101352.91
2022-12-17T16:58:07.410Z,101353.31
2022-12-17T17:00:56.083Z,101359.72
2022-12-17T17:03:42.266Z,101360.28
2022-12-17T17:06:33.332Z,101367.81
2022-12-17T17:09:20.304Z,101356.56
2022-12-17T17:12:07.670Z,101369.78
2022-12-17T17:14:52.980Z,101362.25
2022-12-17T17:17:55.579Z,101366.28
2022-12-17T17:20:42.129Z,101366.75
2022-12-17T17:23:27.477Z,101370.03
2022-12-17T17:26:13.882Z,101379.75
2022-12-17T17:28:59.435Z,101382.16
2022-12-17T17:34:51.080Z,101384.13
2022-12-17T17:37:36.820Z,101380.50
2022-12-17T17:40:22.030Z,101382.13
2022-12-17T17:43:07.315Z,101371.78
2022-12-17T17:45:53.304Z,101373.53
2022-12-17T17:48:39.975Z,101368.06
2022-12-17T17:52:00.341Z,101360.31
2022-12-17T17:54:35.446Z,101358.63
2022-12-17T17:57:20.887Z,101357.03
2022-12-17T18:00:07.152Z,101354.56
2022-12-17T18:02:55.500Z,101353.69
2022-12-17T18:05:44.422Z,101355.53
2022-12-17T18:08:32.057Z,101360.47
2022-12-17T18:11:23.100Z,101375.44
2022-12-17T18:14:10.478Z,101362.28
2022-12-17T18:16:56.147Z,101364.56
2022-12-17T18:19:41.384Z,101366.38
2022-12-17T18:22:28.468Z,101366.13
2022-12-17T18:25:15.667Z,101373.16
2022-12-17T18:28:01.537Z,101367.88
2022-12-17T18:30:46.968Z,101369.47
2022-12-17T18:33:32.408Z,101378.09
2022-12-17T18:36:23.989Z,101372.72
2022-12-17T18:39:18.365Z,101379.41
2022-12-17T18:42:22.647Z,101383.94
2022-12-17T18:45:08.673Z,101390.66
2022-12-17T18:47:56.982Z,101387.28
2022-12-17T18:50:42.338Z,101388.44
2022-12-17T18:53:27.683Z,101388.53
2022-12-17T18:56:19.428Z,101392.72
2022-12-17T18:59:24.228Z,101381.38
2022-12-17T19:02:13.667Z,101375.09
2022-12-17T19:04:59.433Z,101375.91
2022-12-17T19:07:44.840Z,101371.31
2022-12-17T19:10:30.273Z,101374.81
2022-12-17T19:13:15.934Z,101379.25
2022-12-17T19:16:07.290Z,101381.38
2022-12-17T19:18:54.882Z,101383.22
2022-12-17T19:21:40.955Z,101385.59
2022-12-17T19:24:26.829Z,101381.38
2022-12-17T19:27:12.502Z,101385.50
2022-12-17T19:29:57.859Z,101390.63
2022-12-17T19:32:43.623Z,101390.63
2022-12-17T19:35:30.569Z,101390.63
2022-12-17T19:38:15.913Z,101389.56
2022-12-17T19:41:06.652Z,101385.41
2022-12-17T19:43:57.820Z,101388.47
2022-12-17T19:46:44.368Z,101372.69
2022-12-17T19:49:29.876Z,101375.16
2022-12-17T19:52:16.768Z,101371.44
2022-12-17T19:55:02.678Z,101368.78
2022-12-17T19:57:48.005Z,101366.31
2022-12-17T20:00:35.556Z,101360.09
2022-12-17T20:03:21.262Z,101359.13
2022-12-17T20:06:08.885Z,101358.44
2022-12-17T20:08:54.975Z,101358.63
2022-12-17T20:11:41.017Z,101359.41
2022-12-17T20:14:26.566Z,101367.06
2022-12-17T20:17:12.171Z,101372.19
2022-12-17T20:19:58.006Z,101366.28
2022-12-17T20:22:43.742Z,101364.59
2022-12-17T20:25:29.030Z,101368.31
2022-12-17T20:28:14.506Z,101354.09
2022-12-17T20:31:01.329Z,101347.41
2022-12-17T20:33:46.500Z,101346.78
2022-12-17T20:36:32.463Z,101349.91
2022-12-17T20:39:20.745Z,101345.72
2022-12-17T20:42:09.315Z,101343.25
2022-12-17T20:44:54.592Z,101340.34
2022-12-17T20:47:39.859Z,101330.66
2022-12-17T20:50:25.766Z,101329.56
2022-12-17T20:53:11.473Z,101324.28
2022-12-17T20:56:06.225Z,101326.66
2022-12-17T20:59:16.022Z,101326.75
2022-12-17T21:02:01.409Z,101322.81
2022-12-17T21:04:48.273Z,101322.06
2022-12-17T21:07:33.784Z,101319.00
2022-12-17T21:10:19.808Z,101326.06
2022-12-17T21:13:23.663Z,101330.47
2022-12-17T21:16:15.134Z,101345.19
2022-12-17T21:19:02.062Z,101352.78
2022-12-17T21:21:48.195Z,101343.69
2022-12-17T21:24:33.811Z,101354.19
2022-12-17T21:27:19.411Z,101349.03
2022-12-17T21:30:10.042Z,101344.63
2022-12-17T21:32:58.953Z,101350.31
2022-12-17T21:35:44.293Z,101350.03
2022-12-17T21:38:30.507Z,101357.50
2022-12-17T21:41:22.503Z,101354.28
2022-12-17T21:44:11.304Z,101367.28
2022-12-17T21:46:57.792Z,101364.34
2022-12-17T21:49:43.258Z,101369.00
2022-12-17T21:52:28.750Z,101371.50
2022-12-17T21:55:13.958Z,101370.38
2022-12-17T21:57:59.678Z,101376.69
2022-12-17T22:00:44.991Z,101376.88
2022-12-17T22:03:30.389Z,101378.13
2022-12-17T22:06:18.227Z,101369.00
2022-12-17T22:09:06.584Z,101365.97
2022-12-17T22:12:19.479Z,101359.28
2022-12-17T22:15:05.413Z,101367.25
2022-12-17T22:17:52.839Z,101358.63
2022-12-17T22:20:39.079Z,101357.47
2022-12-17T22:23:24.476Z,101343.50
2022-12-17T22:26:13.004Z,101334.69
2022-12-17T22:29:00.190Z,101338.56
2022-12-17T22:32:04.064Z,101339.75
2022-12-17T22:35:57.538Z,101331.69
2022-12-17T22:40:32.319Z,101324.72
2022-12-17T22:44:31.972Z,101317.66
2022-12-17T22:44:41.789Z,101322.06
2022-12-17T22:47:17.209Z,101325.91
2022-12-17T22:50:02.628Z,101324.78
2022-12-17T22:52:48.823Z,101319.66
2022-12-17T22:55:35.285Z,101315.91
2022-12-17T22:58:21.108Z,101315.25
2022-12-17T23:01:06.675Z,101323.09
2022-12-17T23:03:56.942Z,101313.59
2022-12-17T23:06:45.361Z,101312.47
2022-12-17T23:09:30.662Z,101300.75
2022-12-17T23:12:34.707Z,101307.41
2022-12-17T23:15:27.004Z,101305.41
2022-12-17T23:18:12.438Z,101297.38
2022-12-17T23:21:12.577Z,101289.22
2022-12-17T23:23:58.570Z,101283.53
2022-12-17T23:26:44.001Z,101270.31
2022-12-17T23:29:29.389Z,101276.88
2022-12-17T23:32:14.754Z,101274.84
2022-12-17T23:35:00.402Z,101271.69
2022-12-17T23:37:45.957Z,101269.44
2022-12-17T23:40:31.175Z,101263.81
2022-12-17T23:43:17.617Z,101256.69
2022-12-17T23:46:04.684Z,101242.13
2022-12-17T23:48:51.234Z,101232.25
2022-12-17T23:51:37.051Z,101245.22
2022-12-17T23:54:22.458Z,101233.03
2022-12-17T23:57:07.762Z,101235.03
2022-12-17T23:59:53.070Z,101227.53
